Terminal Aerodrome Forecast
Issued by NWS Twin Cities, MN

Home | Current Version | Previous Version | Text Only | Print | Product List | Glossary Off
Versions: 1 2 3 4 5 6 7 8 9 10 11 12 13 14 15 16 17 18 19 20 21 22 23 24 25

000
FTUS43 KMPX 180520
TAFMSP
TAF
KMSP 180520Z 1806/1912 30004KT P6SM SKC
     FM181000 27005KT P6SM BKN100
     FM181800 28008KT P6SM SCT050 BKN100
     FM190100 28003KT P6SM SCT250
     FM190600 VRB02KT P6SM SKC=

USA.gov is the U.S. government's official web portal to all federal, state and local government web resources and services.